Time;durP1;ratioP1;P1;durP2;ratioP2;P2;SDS_P1;SDS_P2;PMS_P1;PMS_P2;Temp;Humidity;BMP_temperature;BMP_pressure;BME280_temperature;BME280_humidity;BME280_pressure;Samples;Min_cycle;Max_cycle;Signal;HPM_P1;HPM_P2
2022/11/09 00:01:01;;;;;;;1.67;0.70;;;14.20;81.60;;;;;;4974280;28;20054;-79
2022/11/09 00:03:27;;;;;;;2.13;0.93;;;14.30;81.70;;;;;;4954508;28;20046;-78
2022/11/09 00:05:55;;;;;;;1.02;0.80;;;14.30;81.60;;;;;;4954825;28;20042;-78
2022/11/09 00:08:21;;;;;;;1.95;0.95;;;14.30;81.60;;;;;;4957394;28;20407;-78
2022/11/09 00:10:46;;;;;;;0.88;0.65;;;14.40;81.60;;;;;;4940116;28;20047;-79
2022/11/09 00:13:12;;;;;;;1.50;0.90;;;14.40;81.50;;;;;;4955465;28;20054;-79
2022/11/09 00:15:38;;;;;;;0.88;0.68;;;14.40;81.50;;;;;;4956576;28;20047;-78
2022/11/09 00:18:04;;;;;;;1.15;0.80;;;14.30;81.50;;;;;;4956815;28;20039;-79
2022/11/09 00:20:30;;;;;;;0.85;0.60;;;14.30;81.60;;;;;;4974066;28;20498;-79
2022/11/09 00:22:56;;;;;;;1.00;0.60;;;14.30;81.60;;;;;;4974108;28;20054;-79
2022/11/09 00:25:22;;;;;;;0.93;0.68;;;14.30;81.60;;;;;;4956011;28;20443;-78
2022/11/09 00:27:47;;;;;;;0.88;0.65;;;14.30;81.60;;;;;;4955999;28;20051;-78
2022/11/09 00:30:13;;;;;;;0.52;0.50;;;14.40;81.80;;;;;;4956282;28;20576;-79
2022/11/09 00:32:39;;;;;;;1.00;0.80;;;14.30;81.80;;;;;;4973687;28;20031;-78
2022/11/09 00:35:05;;;;;;;0.75;0.63;;;14.40;82.00;;;;;;4956318;28;20132;-78
2022/11/09 00:37:31;;;;;;;0.80;0.70;;;14.20;81.90;;;;;;4973423;28;20042;-79
2022/11/09 00:39:57;;;;;;;1.35;0.70;;;14.30;81.90;;;;;;4973616;28;20034;-78
2022/11/09 00:42:23;;;;;;;1.27;0.77;;;14.30;81.90;;;;;;4940082;28;20035;-78
2022/11/09 00:44:48;;;;;;;2.92;1.00;;;14.30;82.00;;;;;;4956251;28;20035;-78
2022/11/09 00:47:14;;;;;;;1.33;0.75;;;14.30;82.00;;;;;;4940348;28;20522;-78
2022/11/09 00:49:40;;;;;;;0.98;0.65;;;14.20;81.90;;;;;;4973436;28;20541;-78
2022/11/09 00:52:06;;;;;;;0.60;0.50;;;14.20;81.90;;;;;;4956330;28;20105;-78
2022/11/09 00:54:31;;;;;;;1.42;0.50;;;14.20;82.00;;;;;;4938969;28;20053;-78
2022/11/09 00:56:57;;;;;;;0.63;0.60;;;14.20;82.00;;;;;;4973508;28;20407;-78
2022/11/09 00:59:23;;;;;;;0.88;0.60;;;14.20;82.10;;;;;;4973873;28;20067;-78
2022/11/09 01:01:49;;;;;;;0.68;0.40;;;14.20;82.20;;;;;;4939593;28;20046;-79
2022/11/09 01:04:15;;;;;;;0.93;0.50;;;14.20;82.20;;;;;;4956653;28;20097;-78
2022/11/09 01:06:40;;;;;;;0.55;0.55;;;14.20;82.20;;;;;;4973398;28;20055;-78
2022/11/09 01:09:06;;;;;;;1.00;0.60;;;14.20;82.30;;;;;;4956418;28;20070;-78
2022/11/09 01:11:32;;;;;;;0.60;0.50;;;14.20;82.30;;;;;;4971380;28;20050;-79
2022/11/09 01:13:59;;;;;;;0.52;0.43;;;14.10;82.20;;;;;;4955851;28;20402;-78
2022/11/09 01:16:25;;;;;;;0.60;0.47;;;14.20;82.30;;;;;;4955318;28;20046;-78
2022/11/09 01:18:53;;;;;;;0.82;0.55;;;14.20;82.30;;;;;;4972759;28;20055;-78
2022/11/09 01:21:19;;;;;;;0.40;0.40;;;14.20;82.40;;;;;;4972778;28;20043;-79
2022/11/09 01:23:45;;;;;;;1.88;0.50;;;14.20;82.30;;;;;;4939650;28;20049;-78
2022/11/09 01:26:13;;;;;;;0.98;0.47;;;14.20;82.40;;;;;;4939837;28;20043;-79
2022/11/09 01:28:40;;;;;;;1.38;0.70;;;14.10;82.40;;;;;;4923353;28;20129;-78
2022/11/09 01:31:10;;;;;;;1.50;0.90;;;14.10;82.50;;;;;;4972787;28;20027;-79
2022/11/09 01:33:36;;;;;;;2.55;0.82;;;14.00;82.60;;;;;;4972748;28;20394;-80
2022/11/09 01:36:06;;;;;;;1.08;0.70;;;14.00;82.70;;;;;;4937610;28;20096;-79
2022/11/09 01:38:32;;;;;;;1.65;0.73;;;13.90;82.90;;;;;;4955123;28;20047;-80
2022/11/09 01:40:58;;;;;;;1.33;0.80;;;13.80;83.10;;;;;;4954727;28;20078;-79
2022/11/09 01:43:24;;;;;;;0.70;0.70;;;13.80;83.30;;;;;;4972707;28;20046;-80
2022/11/09 01:45:56;;;;;;;0.95;0.60;;;13.70;83.50;;;;;;4972499;28;20045;-79
2022/11/09 01:48:36;;;;;;;0.52;0.47;;;13.70;83.70;;;;;;4972637;28;20053;-79
2022/11/09 01:51:08;;;;;;;0.63;0.50;;;13.70;83.80;;;;;;4955809;28;20085;-79
2022/11/09 01:53:37;;;;;;;0.60;0.45;;;13.60;83.90;;;;;;4938433;28;20070;-79
2022/11/09 01:56:06;;;;;;;0.90;0.40;;;13.60;84.00;;;;;;4972703;28;20057;-80
2022/11/09 01:58:39;;;;;;;0.40;0.40;;;13.60;84.20;;;;;;4937613;28;20133;-80
2022/11/09 02:01:09;;;;;;;0.90;0.52;;;13.60;84.40;;;;;;4956108;28;20066;-80
2022/11/09 02:03:43;;;;;;;0.73;0.50;;;13.60;84.50;;;;;;4954461;28;20057;-80
2022/11/09 02:06:12;;;;;;;0.57;0.47;;;13.60;84.60;;;;;;4955094;28;20043;-79
2022/11/09 02:08:39;;;;;;;1.20;0.50;;;13.50;84.60;;;;;;4938817;28;20050;-80
2022/11/09 02:11:10;;;;;;;1.23;0.35;;;13.50;84.60;;;;;;4971986;28;20047;-80
2022/11/09 02:13:40;;;;;;;0.32;0.30;;;13.40;84.60;;;;;;4939012;28;20034;-80
2022/11/09 02:16:09;;;;;;;0.20;0.20;;;13.50;84.80;;;;;;4938999;28;20427;-80
2022/11/09 02:18:37;;;;;;;0.88;0.32;;;13.40;84.80;;;;;;4954798;28;20035;-78
2022/11/09 02:21:03;;;;;;;1.05;0.38;;;13.50;84.90;;;;;;4952868;28;20039;-80
2022/11/09 02:23:28;;;;;;;0.80;0.65;;;13.50;84.90;;;;;;4971983;28;20414;-79
2022/11/09 02:26:00;;;;;;;1.83;0.40;;;13.40;84.80;;;;;;4939087;28;20056;-79
2022/11/09 02:28:27;;;;;;;0.88;0.45;;;13.40;84.80;;;;;;4971835;28;20043;-79
2022/11/09 02:30:55;;;;;;;0.70;0.40;;;13.50;84.90;;;;;;4937223;28;20511;-78
2022/11/09 02:33:21;;;;;;;1.73;0.63;;;13.50;84.80;;;;;;4954650;28;20050;-79
2022/11/09 02:35:47;;;;;;;2.05;0.30;;;13.40;84.80;;;;;;4954596;28;20062;-79
2022/11/09 02:38:14;;;;;;;0.38;0.30;;;13.50;84.80;;;;;;4971902;28;20137;-79
2022/11/09 02:40:44;;;;;;;0.55;0.50;;;13.50;84.80;;;;;;4938608;28;20049;-79
2022/11/09 02:43:12;;;;;;;0.52;0.30;;;13.50;84.90;;;;;;4966592;28;20043;-78
2022/11/09 02:45:38;;;;;;;0.65;0.40;;;13.50;84.80;;;;;;4971885;28;20089;-79
2022/11/09 02:48:04;;;;;;;0.95;0.55;;;13.50;84.80;;;;;;4954269;28;20046;-79
2022/11/09 02:50:30;;;;;;;0.80;0.32;;;13.50;84.80;;;;;;4939415;28;20049;-79
2022/11/09 02:52:55;;;;;;;0.98;0.40;;;13.50;84.80;;;;;;4957598;28;20043;-80
2022/11/09 02:55:21;;;;;;;0.50;0.40;;;13.60;84.80;;;;;;4957292;28;20046;-80
2022/11/09 02:57:47;;;;;;;0.50;0.50;;;13.50;84.80;;;;;;4974831;28;20376;-80
2022/11/09 03:00:13;;;;;;;0.32;0.32;;;13.50;84.60;;;;;;4957533;28;20045;-79
2022/11/09 03:02:40;;;;;;;1.55;0.40;;;13.50;84.60;;;;;;4939809;28;20391;-79
2022/11/09 03:05:06;;;;;;;0.90;0.43;;;13.60;84.70;;;;;;4975402;28;20120;-78
2022/11/09 03:07:31;;;;;;;0.88;0.50;;;13.60;84.60;;;;;;4956134;28;20046;-79
2022/11/09 03:09:57;;;;;;;0.43;0.40;;;13.50;84.60;;;;;;4957381;28;20420;-79
2022/11/09 03:12:30;;;;;;;0.55;0.35;;;13.50;84.60;;;;;;4957400;28;20483;-78
2022/11/09 03:14:59;;;;;;;1.08;0.68;;;13.50;85.30;;;;;;4973346;28;20495;-79
2022/11/09 03:17:25;;;;;;;0.55;0.50;;;13.50;84.80;;;;;;4957473;28;20051;-79
2022/11/09 03:19:51;;;;;;;0.85;0.65;;;13.50;84.80;;;;;;4941216;28;20103;-78
2022/11/09 03:22:17;;;;;;;0.47;0.40;;;13.60;84.80;;;;;;4974406;28;20043;-78
2022/11/09 03:24:43;;;;;;;0.98;0.43;;;13.50;84.70;;;;;;4957326;28;20039;-78
2022/11/09 03:27:09;;;;;;;1.30;0.55;;;13.50;84.70;;;;;;4957388;28;20543;-79
2022/11/09 03:29:35;;;;;;;0.75;0.40;;;13.50;84.70;;;;;;4957179;28;20150;-78
2022/11/09 03:32:00;;;;;;;0.47;0.40;;;13.50;84.70;;;;;;4941346;28;20141;-78
2022/11/09 03:34:26;;;;;;;0.60;0.50;;;13.50;84.70;;;;;;4941752;28;20046;-79
2022/11/09 03:36:52;;;;;;;1.90;0.68;;;13.50;84.60;;;;;;4925496;28;20491;-79
2022/11/09 03:39:18;;;;;;;1.02;0.65;;;13.40;84.60;;;;;;4957253;28;20495;-79
2022/11/09 03:41:43;;;;;;;1.50;0.70;;;13.50;84.60;;;;;;4941102;28;20082;-80
2022/11/09 03:44:09;;;;;;;1.75;0.70;;;13.60;84.60;;;;;;4941194;28;20074;-79
2022/11/09 03:46:35;;;;;;;1.77;0.57;;;13.50;84.60;;;;;;4957048;28;20050;-79
2022/11/09 03:49:00;;;;;;;1.02;0.60;;;13.60;84.60;;;;;;4957260;28;20049;-79
2022/11/09 03:51:26;;;;;;;0.77;0.50;;;13.60;84.60;;;;;;4940771;28;20039;-79
2022/11/09 03:53:52;;;;;;;2.70;0.70;;;13.50;84.60;;;;;;4940169;28;20035;-79
2022/11/09 03:56:18;;;;;;;1.05;0.57;;;13.40;84.60;;;;;;4955310;28;20511;-79
2022/11/09 03:58:44;;;;;;;0.80;0.47;;;13.50;84.60;;;;;;4956839;28;20034;-78
2022/11/09 04:01:10;;;;;;;0.50;0.50;;;13.40;84.70;;;;;;4956393;28;20050;-79
2022/11/09 04:03:36;;;;;;;1.30;0.57;;;13.40;84.80;;;;;;4923959;28;20035;-79
2022/11/09 04:06:02;;;;;;;0.68;0.47;;;13.40;84.90;;;;;;4957395;28;20030;-79
2022/11/09 04:08:28;;;;;;;0.75;0.63;;;13.50;85.00;;;;;;4974002;28;20038;-79
2022/11/09 04:10:54;;;;;;;0.85;0.50;;;13.40;84.90;;;;;;4956606;28;20046;-79
2022/11/09 04:13:20;;;;;;;0.82;0.40;;;13.40;84.90;;;;;;4939465;28;20468;-79
2022/11/09 04:15:47;;;;;;;1.00;0.52;;;13.40;84.90;;;;;;4956612;28;20039;-80
2022/11/09 04:18:15;;;;;;;0.73;0.60;;;13.40;84.90;;;;;;4956136;28;20058;-79
2022/11/09 04:20:41;;;;;;;1.25;0.50;;;13.30;84.80;;;;;;4973547;28;20050;-79
2022/11/09 04:23:10;;;;;;;1.45;0.57;;;13.30;84.90;;;;;;4956845;28;20039;-81
2022/11/09 04:25:38;;;;;;;0.93;0.52;;;13.30;84.90;;;;;;4954679;28;20070;-79
2022/11/09 04:28:05;;;;;;;1.30;0.52;;;13.30;85.00;;;;;;4956789;28;20156;-79
2022/11/09 04:30:33;;;;;;;1.30;0.40;;;13.20;84.90;;;;;;4974026;28;20047;-79
2022/11/09 04:33:00;;;;;;;0.90;0.52;;;13.20;84.90;;;;;;4956611;28;20043;-79
2022/11/09 04:35:28;;;;;;;0.98;0.47;;;13.20;84.90;;;;;;4955974;28;21007;-79
2022/11/09 04:37:56;;;;;;;0.52;0.40;;;13.30;85.10;;;;;;4956150;28;20518;-79
2022/11/09 04:40:24;;;;;;;0.90;0.45;;;13.20;85.10;;;;;;4954457;28;20039;-78
2022/11/09 04:42:50;;;;;;;0.80;0.40;;;13.20;85.00;;;;;;4956348;28;20064;-79
2022/11/09 04:45:16;;;;;;;0.43;0.38;;;13.10;85.00;;;;;;4955832;28;20502;-78
2022/11/09 04:47:42;;;;;;;1.58;0.45;;;13.10;85.00;;;;;;4954518;28;20093;-79
2022/11/09 04:50:09;;;;;;;0.65;0.40;;;13.10;85.00;;;;;;4938868;28;20043;-78
2022/11/09 04:52:34;;;;;;;0.73;0.45;;;13.10;85.10;;;;;;4955897;28;20043;-79
2022/11/09 04:55:00;;;;;;;1.95;0.60;;;13.10;85.10;;;;;;4956174;28;20047;-79
2022/11/09 04:57:26;;;;;;;0.43;0.40;;;13.10;85.10;;;;;;4973177;28;20047;-78
2022/11/09 04:59:52;;;;;;;0.63;0.40;;;13.10;85.00;;;;;;4955807;28;20191;-78
2022/11/09 05:02:18;;;;;;;1.33;0.47;;;13.10;85.00;;;;;;4973219;28;20082;-79
2022/11/09 05:04:43;;;;;;;1.73;0.50;;;13.00;85.00;;;;;;4973697;28;20042;-78
2022/11/09 05:07:09;;;;;;;0.57;0.40;;;13.00;85.10;;;;;;4940269;28;20043;-79
2022/11/09 05:09:35;;;;;;;0.77;0.30;;;13.00;85.10;;;;;;4956016;28;20133;-79
2022/11/09 05:12:01;;;;;;;0.77;0.50;;;13.00;85.10;;;;;;4940045;28;20134;-78
2022/11/09 05:14:26;;;;;;;1.17;0.50;;;13.00;85.20;;;;;;4972391;28;20039;-78
2022/11/09 05:16:52;;;;;;;1.55;0.50;;;13.00;85.20;;;;;;4954106;28;20047;-78
2022/11/09 05:19:18;;;;;;;1.13;0.40;;;13.00;85.20;;;;;;4955311;28;20051;-79
2022/11/09 05:21:43;;;;;;;0.82;0.52;;;12.90;85.20;;;;;;4973161;28;20134;-78
2022/11/09 05:24:09;;;;;;;2.15;0.82;;;12.90;85.30;;;;;;4973138;28;20050;-79
2022/11/09 05:26:37;;;;;;;1.58;0.50;;;12.80;85.30;;;;;;4939876;28;20047;-78
2022/11/09 05:29:06;;;;;;;0.38;0.30;;;12.80;85.90;;;;;;4973511;28;20043;-78
2022/11/09 05:31:31;;;;;;;0.98;0.50;;;12.80;85.30;;;;;;4955532;28;20081;-78
2022/11/09 05:33:58;;;;;;;0.52;0.40;;;12.80;85.40;;;;;;4955762;28;20070;-79
2022/11/09 05:36:25;;;;;;;0.90;0.35;;;12.80;85.40;;;;;;4939794;28;20037;-78
2022/11/09 05:38:51;;;;;;;0.80;0.40;;;12.70;85.40;;;;;;4954220;28;20039;-79
2022/11/09 05:41:17;;;;;;;1.13;0.32;;;12.80;85.60;;;;;;4956196;28;20035;-80
2022/11/09 05:43:44;;;;;;;0.93;0.30;;;12.80;85.60;;;;;;4955533;28;20050;-77
2022/11/09 05:46:11;;;;;;;1.10;0.43;;;12.70;85.60;;;;;;4955497;28;20058;-79
2022/11/09 05:48:40;;;;;;;0.75;0.40;;;12.70;85.60;;;;;;4955440;28;20045;-79
2022/11/09 05:51:07;;;;;;;0.47;0.30;;;12.70;85.60;;;;;;4972720;28;20050;-79
2022/11/09 05:53:36;;;;;;;2.30;0.70;;;12.70;85.60;;;;;;4973080;28;20047;-79
2022/11/09 05:56:05;;;;;;;1.23;0.57;;;12.60;85.60;;;;;;4956462;28;20049;-78
2022/11/09 05:58:35;;;;;;;0.40;0.40;;;12.60;85.60;;;;;;4939478;28;20141;-78
2022/11/09 06:01:03;;;;;;;0.50;0.40;;;12.70;85.70;;;;;;4953956;28;20039;-79
2022/11/09 06:03:29;;;;;;;0.60;0.50;;;12.60;85.70;;;;;;4973067;28;20501;-79
2022/11/09 06:06:01;;;;;;;0.82;0.43;;;12.60;85.70;;;;;;4972619;28;20125;-79
2022/11/09 06:08:27;;;;;;;0.45;0.38;;;12.60;85.80;;;;;;4939707;28;20050;-79
2022/11/09 06:10:59;;;;;;;0.52;0.40;;;12.50;85.80;;;;;;4954967;28;20530;-78
2022/11/09 06:13:24;;;;;;;0.95;0.47;;;12.50;85.80;;;;;;4939210;28;20077;-79
2022/11/09 06:15:53;;;;;;;2.08;0.50;;;12.50;85.80;;;;;;4937453;28;20081;-78
2022/11/09 06:18:19;;;;;;;0.68;0.40;;;12.50;86.00;;;;;;4954284;28;20071;-79
2022/11/09 06:20:44;;;;;;;0.73;0.40;;;12.50;86.00;;;;;;4955193;28;20043;-79
2022/11/09 06:23:11;;;;;;;2.25;0.50;;;12.50;86.10;;;;;;4939441;28;20495;-78
2022/11/09 06:25:36;;;;;;;1.60;0.65;;;12.50;86.10;;;;;;4955981;28;20114;-79
2022/11/09 06:28:02;;;;;;;2.13;0.70;;;12.50;86.00;;;;;;4942546;28;20058;-79
2022/11/09 06:30:29;;;;;;;0.95;0.47;;;12.40;85.80;;;;;;4942279;28;20540;-78
2022/11/09 06:33:00;;;;;;;0.73;0.47;;;12.50;85.80;;;;;;4958467;28;20043;-79
2022/11/09 06:35:26;;;;;;;0.50;0.50;;;12.60;85.90;;;;;;4958169;28;20495;-78
2022/11/09 06:37:57;;;;;;;1.38;0.43;;;12.60;85.80;;;;;;4958354;28;20125;-79
2022/11/09 06:40:23;;;;;;;0.77;0.50;;;12.50;85.90;;;;;;4942566;28;20041;-78
2022/11/09 06:42:49;;;;;;;2.10;0.60;;;12.50;85.80;;;;;;4957138;28;20039;-79
2022/11/09 06:45:14;;;;;;;1.45;0.40;;;12.50;85.90;;;;;;4958229;28;20070;-78
2022/11/09 06:47:40;;;;;;;0.35;0.30;;;12.40;85.90;;;;;;4975341;28;20121;-79
2022/11/09 06:50:06;;;;;;;0.88;0.50;;;12.40;86.00;;;;;;4957144;28;20098;-79
2022/11/09 06:52:32;;;;;;;0.95;0.50;;;12.40;86.10;;;;;;4957994;28;20058;-79
2022/11/09 06:55:00;;;;;;;0.47;0.40;;;12.40;86.10;;;;;;4942296;28;20046;-77
2022/11/09 06:57:29;;;;;;;1.02;0.30;;;12.40;86.10;;;;;;4957690;28;20109;-77
2022/11/09 06:59:55;;;;;;;0.98;0.52;;;12.30;86.10;;;;;;4975348;28;20102;-77
2022/11/09 07:02:21;;;;;;;1.55;0.30;;;12.40;86.20;;;;;;4975428;28;20038;-77
2022/11/09 07:04:50;;;;;;;1.58;0.52;;;12.40;86.20;;;;;;4942558;28;20042;-78
2022/11/09 07:07:16;;;;;;;1.25;0.40;;;12.40;86.20;;;;;;4958001;28;20176;-77
2022/11/09 07:09:41;;;;;;;1.70;0.57;;;12.40;86.20;;;;;;4976485;28;20042;-76
2022/11/09 07:12:12;;;;;;;1.40;0.65;;;12.40;86.20;;;;;;4944331;28;20050;-78
2022/11/09 07:14:44;;;;;;;1.02;0.47;;;12.40;86.30;;;;;;4941679;28;20066;-80
2022/11/09 07:17:13;;;;;;;0.93;0.57;;;12.30;86.20;;;;;;4959242;28;20035;-77
2022/11/09 07:19:39;;;;;;;1.25;0.70;;;12.40;86.30;;;;;;4974978;28;20104;-76
2022/11/09 07:22:05;;;;;;;1.45;0.45;;;12.30;86.20;;;;;;4957705;28;20047;-75
2022/11/09 07:24:30;;;;;;;0.75;0.47;;;12.40;86.30;;;;;;4956813;28;20043;-77
2022/11/09 07:26:58;;;;;;;0.90;0.52;;;12.30;86.30;;;;;;4941372;28;20035;-76
2022/11/09 07:29:24;;;;;;;1.15;0.57;;;12.30;86.30;;;;;;4957434;28;20039;-76
2022/11/09 07:31:50;;;;;;;1.13;0.30;;;12.30;86.30;;;;;;4974656;28;20027;-75
2022/11/09 07:34:15;;;;;;;1.23;0.45;;;12.30;86.30;;;;;;4956884;28;20054;-76
2022/11/09 07:36:41;;;;;;;1.85;0.47;;;12.40;86.40;;;;;;4973837;28;20042;-73
2022/11/09 07:39:07;;;;;;;1.25;0.40;;;12.20;86.30;;;;;;4941291;28;20557;-73
2022/11/09 07:41:48;;;;;;;0.65;0.40;;;12.40;86.40;;;;;;4974407;28;20081;-76
2022/11/09 07:44:17;;;;;;;0.47;0.30;;;12.40;86.40;;;;;;4915156;29;20520;-76
2022/11/09 07:46:47;;;;;;;0.73;0.40;;;12.40;86.40;;;;;;4899947;29;20115;-76
2022/11/09 07:49:13;;;;;;;0.95;0.50;;;12.40;86.30;;;;;;4915298;29;20054;-77
2022/11/09 07:51:40;;;;;;;1.20;0.50;;;12.40;86.30;;;;;;4897296;29;20048;-76
2022/11/09 07:54:06;;;;;;;0.50;0.50;;;12.40;86.30;;;;;;4899453;29;20109;-75
2022/11/09 07:56:32;;;;;;;1.75;0.40;;;12.40;86.30;;;;;;4897323;29;20070;-75
2022/11/09 07:58:57;;;;;;;1.13;0.47;;;12.40;86.30;;;;;;4883413;29;20044;-74
2022/11/09 08:01:23;;;;;;;0.47;0.35;;;12.40;86.20;;;;;;4915234;29;20048;-74
2022/11/09 08:03:49;;;;;;;0.82;0.50;;;12.50;86.30;;;;;;4914841;29;20432;-74
2022/11/09 08:06:15;;;;;;;0.40;0.40;;;12.50;86.30;;;;;;4915053;29;20075;-76
2022/11/09 08:08:40;;;;;;;1.08;0.40;;;12.40;86.20;;;;;;4935325;28;20067;-77
2022/11/09 08:11:06;;;;;;;0.70;0.40;;;12.50;86.20;;;;;;4974617;28;20030;-76
2022/11/09 08:13:32;;;;;;;1.25;0.80;;;12.50;86.20;;;;;;4956981;28;20475;-76
2022/11/09 08:16:01;;;;;;;0.63;0.47;;;12.60;86.20;;;;;;4956311;28;20039;-74
2022/11/09 08:18:27;;;;;;;0.82;0.45;;;12.70;86.30;;;;;;4955964;28;20084;-74
2022/11/09 08:20:53;;;;;;;3.00;0.60;;;12.60;86.20;;;;;;4974114;28;20035;-75
2022/11/09 08:23:20;;;;;;;0.88;0.60;;;12.60;86.20;;;;;;4974098;28;20479;-75
2022/11/09 08:25:50;;;;;;;1.88;0.68;;;12.60;86.10;;;;;;4974268;28;20050;-75
2022/11/09 08:28:15;;;;;;;1.15;0.60;;;12.60;86.10;;;;;;4940180;28;20070;-75
2022/11/09 08:30:45;;;;;;;1.75;0.47;;;12.70;86.10;;;;;;4956486;28;20439;-75
2022/11/09 08:33:14;;;;;;;1.95;0.70;;;12.60;86.00;;;;;;4940320;28;20049;-74
2022/11/09 08:35:40;;;;;;;1.30;0.57;;;12.70;86.10;;;;;;4941204;28;20047;-76
2022/11/09 08:38:05;;;;;;;2.28;0.60;;;12.70;86.00;;;;;;4974104;28;20479;-75
2022/11/09 08:40:32;;;;;;;1.02;0.60;;;12.70;86.00;;;;;;4940527;28;20051;-75
2022/11/09 08:43:04;;;;;;;1.52;0.47;;;12.70;85.90;;;;;;4956507;28;20047;-74
2022/11/09 08:45:33;;;;;;;1.27;0.60;;;12.80;86.00;;;;;;4973871;28;20034;-74
2022/11/09 08:48:00;;;;;;;1.75;0.75;;;12.80;85.90;;;;;;4924880;28;20064;-75
2022/11/09 08:50:27;;;;;;;1.90;0.60;;;12.80;85.80;;;;;;4956290;28;20093;-75
2022/11/09 08:52:53;;;;;;;2.47;0.60;;;12.90;85.90;;;;;;4973526;28;20038;-77
2022/11/09 08:55:25;;;;;;;2.70;0.75;;;12.90;85.80;;;;;;4974261;28;20115;-79
2022/11/09 08:58:03;;;;;;;1.80;0.68;;;12.90;85.70;;;;;;4894589;29;20060;-78
2022/11/09 09:00:58;;;;;;;1.63;0.60;;;12.90;85.60;;;;;;4839186;29;20163;-76
2022/11/09 09:07:09;;;;;;;1.83;0.75;;;13.00;85.50;;;;;;4858419;29;20045;-76
2022/11/09 09:09:44;;;;;;;2.03;0.70;;;13.00;85.40;;;;;;4841518;29;20113;-75
2022/11/09 09:12:09;;;;;;;1.63;0.70;;;13.10;85.30;;;;;;4798028;29;20499;-76
2022/11/09 09:14:36;;;;;;;2.00;0.70;;;13.20;85.30;;;;;;4766897;30;20040;-74
2022/11/09 09:17:01;;;;;;;3.10;1.00;;;13.20;85.20;;;;;;4752467;30;20051;-75
2022/11/09 09:19:30;;;;;;;2.60;0.85;;;13.20;85.10;;;;;;4752340;30;20047;-79
2022/11/09 09:21:57;;;;;;;4.10;0.80;;;13.30;85.10;;;;;;4758368;29;20040;-75
2022/11/09 09:24:23;;;;;;;3.22;1.10;;;13.30;84.90;;;;;;4793056;29;20496;-75
2022/11/09 09:26:48;;;;;;;2.45;0.98;;;13.30;84.80;;;;;;4821570;29;20217;-75
2022/11/09 09:29:15;;;;;;;2.97;1.02;;;13.30;84.70;;;;;;4820994;29;20187;-76
2022/11/09 09:31:41;;;;;;;2.58;0.82;;;13.40;84.70;;;;;;4822475;29;20046;-74
2022/11/09 09:34:07;;;;;;;3.65;1.13;;;13.30;84.80;;;;;;4821650;29;20066;-75
2022/11/09 09:36:34;;;;;;;2.08;1.00;;;13.40;84.80;;;;;;4820772;29;20042;-75
2022/11/09 09:39:00;;;;;;;3.45;1.42;;;13.30;84.80;;;;;;4822355;29;20058;-77
2022/11/09 09:41:40;;;;;;;2.88;0.90;;;13.40;84.90;;;;;;4869760;29;20050;-75
2022/11/09 09:44:38;;;;;;;2.28;0.75;;;13.40;84.90;;;;;;4965022;28;20038;-77
2022/11/09 09:47:15;;;;;;;2.28;1.02;;;13.30;84.90;;;;;;4960260;28;20078;-74
2022/11/09 09:49:48;;;;;;;3.70;0.85;;;13.50;84.90;;;;;;4973098;28;20069;-74
2022/11/09 09:52:25;;;;;;;3.95;0.88;;;13.40;84.80;;;;;;4973196;28;20206;-74
2022/11/09 09:55:02;;;;;;;1.33;0.70;;;13.50;84.80;;;;;;4957979;28;20043;-74
2022/11/09 09:57:29;;;;;;;0.75;0.55;;;13.40;84.70;;;;;;4972815;28;20134;-75
2022/11/09 09:59:59;;;;;;;1.13;0.63;;;13.40;84.60;;;;;;4972889;28;20050;-73
2022/11/09 10:02:28;;;;;;;1.17;0.70;;;13.50;84.60;;;;;;4974249;28;20049;-77
2022/11/09 10:04:59;;;;;;;3.88;1.00;;;13.50;84.60;;;;;;4958187;28;20047;-75
2022/11/09 10:07:41;;;;;;;2.05;0.75;;;13.50;84.50;;;;;;4954479;28;20098;-74
2022/11/09 10:10:45;;;;;;;0.88;0.52;;;13.70;84.60;;;;;;4955467;28;20118;-78
2022/11/09 10:13:36;;;;;;;1.25;0.47;;;13.70;84.50;;;;;;4975223;28;20514;-76
2022/11/09 10:16:22;;;;;;;0.75;0.50;;;13.70;84.30;;;;;;4972807;28;20069;-75
2022/11/09 10:19:18;;;;;;;1.92;0.65;;;13.80;84.20;;;;;;4973200;28;20062;-75
2022/11/09 10:22:11;;;;;;;2.28;0.60;;;13.80;84.10;;;;;;4955188;28;20483;-75
2022/11/09 10:25:00;;;;;;;2.08;0.77;;;13.90;84.00;;;;;;4957168;28;20090;-74
2022/11/09 10:27:35;;;;;;;1.23;0.70;;;14.00;83.90;;;;;;4958757;28;20043;-73
2022/11/09 10:30:10;;;;;;;0.77;0.65;;;14.00;83.80;;;;;;4939342;28;20121;-74
2022/11/09 10:32:36;;;;;;;1.27;0.65;;;14.00;83.80;;;;;;4958066;28;20046;-76
2022/11/09 10:35:28;;;;;;;4.47;1.08;;;14.10;83.70;;;;;;4972313;28;20058;-77
2022/11/09 10:37:54;;;;;;;3.25;1.05;;;14.10;83.50;;;;;;4943575;28;20039;-74
2022/11/09 10:40:34;;;;;;;3.25;1.02;;;14.20;83.40;;;;;;4955515;28;20042;-75
2022/11/09 10:43:56;;;;;;;2.08;0.73;;;14.20;83.30;;;;;;4973846;28;20097;-76
2022/11/09 10:47:10;;;;;;;2.08;0.70;;;14.20;83.10;;;;;;4972824;28;20054;-75
2022/11/09 10:49:37;;;;;;;1.50;0.70;;;14.30;83.00;;;;;;4974814;28;20039;-75
2022/11/09 10:52:03;;;;;;;2.10;0.82;;;14.30;83.00;;;;;;4972984;28;20054;-74
2022/11/09 10:54:34;;;;;;;2.30;0.93;;;14.40;82.90;;;;;;4939277;28;20042;-73
2022/11/09 10:57:18;;;;;;;2.43;1.20;;;14.50;82.60;;;;;;4957217;28;20050;-76
2022/11/09 10:59:53;;;;;;;2.20;0.80;;;14.50;82.50;;;;;;4955425;28;20278;-74
2022/11/09 11:02:43;;;;;;;2.55;1.00;;;14.40;82.40;;;;;;4939207;28;20740;-76
2022/11/09 11:05:46;;;;;;;2.85;0.75;;;14.50;82.50;;;;;;4939918;28;20055;-80
2022/11/09 11:19:40;;;;;;;2.22;0.60;;;14.40;82.70;;;;;;4972186;28;20510;-79
2022/11/09 11:22:34;;;;;;;0.93;0.55;;;14.40;82.60;;;;;;4920232;29;20041;-79
2022/11/09 11:32:19;;;;;;;0.80;0.40;;;14.20;82.60;;;;;;4858042;29;20157;-78
2022/11/09 11:34:46;;;;;;;1.20;0.60;;;14.30;82.90;;;;;;4842226;29;20514;-76
2022/11/09 11:37:28;;;;;;;1.33;0.43;;;14.30;82.90;;;;;;4833063;29;20056;-75
2022/11/09 11:40:05;;;;;;;0.77;0.60;;;14.30;82.90;;;;;;4834114;29;20128;-76
2022/11/09 11:50:02;;;;;;;1.20;0.60;;;14.40;82.80;;;;;;4834775;29;20058;-76
2022/11/09 11:52:48;;;;;;;2.00;0.60;;;14.40;82.60;;;;;;4836528;29;20058;-77
2022/11/09 11:55:30;;;;;;;1.15;0.75;;;14.40;82.60;;;;;;4822295;29;20631;-76
2022/11/09 11:58:17;;;;;;;1.90;0.80;;;14.40;82.50;;;;;;4822421;29;20054;-76
2022/11/09 12:01:04;;;;;;;0.93;0.50;;;14.50;82.50;;;;;;4821994;29;20101;-77
2022/11/09 12:04:30;;;;;;;2.35;0.93;;;14.40;82.30;;;;;;4843587;29;20046;-77
2022/11/09 12:07:21;;;;;;;0.45;0.40;;;14.50;82.20;;;;;;4897951;29;20512;-77
2022/11/09 12:13:58;;;;;;;1.65;0.70;;;14.50;82.10;;;;;;4892045;29;20044;-76
2022/11/09 12:16:34;;;;;;;3.08;0.93;;;14.50;82.80;;;;;;4910982;29;20044;-74
2022/11/09 12:19:30;;;;;;;1.55;0.88;;;14.50;81.90;;;;;;4899107;29;20157;-78
2022/11/09 12:22:30;;;;;;;1.65;0.75;;;14.50;81.90;;;;;;4912570;29;20635;-77
2022/11/09 12:29:04;;;;;;;1.25;0.57;;;14.50;81.90;;;;;;4929275;29;20206;-76
2022/11/09 12:32:09;;;;;;;1.27;0.57;;;14.60;81.80;;;;;;4947105;28;20054;-75
2022/11/09 12:35:34;;;;;;;0.60;0.40;;;14.80;81.60;;;;;;4936409;28;20047;-75
2022/11/09 12:38:49;;;;;;;1.10;0.50;;;14.90;81.10;;;;;;4970480;28;20193;-76
2022/11/09 12:45:06;;;;;;;1.80;0.70;;;14.80;81.00;;;;;;4857700;29;20064;-76
2022/11/09 12:47:41;;;;;;;3.22;0.75;;;14.70;81.20;;;;;;4873324;29;20041;-75
2022/11/09 12:50:14;;;;;;;2.22;0.65;;;14.60;81.20;;;;;;4876363;29;20053;-77
2022/11/09 12:52:41;;;;;;;1.30;0.55;;;14.60;81.20;;;;;;4877974;29;20040;-77
2022/11/09 12:55:14;;;;;;;1.35;0.50;;;14.60;81.30;;;;;;4876635;29;20161;-74
2022/11/09 12:57:45;;;;;;;2.13;0.45;;;14.60;81.50;;;;;;4876774;29;20040;-76
2022/11/09 13:00:45;;;;;;;1.15;0.55;;;14.70;81.50;;;;;;4877672;29;20703;-76
2022/11/09 13:03:20;;;;;;;1.70;0.55;;;14.80;81.20;;;;;;4876260;29;20451;-73
2022/11/09 13:06:07;;;;;;;1.35;0.70;;;14.90;80.90;;;;;;4877767;29;20048;-76
2022/11/09 13:08:33;;;;;;;0.88;0.65;;;14.90;80.60;;;;;;4862016;29;20085;-77
2022/11/09 13:11:10;;;;;;;1.33;0.63;;;14.90;81.20;;;;;;4877593;29;20049;-77
2022/11/09 13:13:36;;;;;;;1.65;0.65;;;14.90;80.40;;;;;;4878047;29;20068;-78
2022/11/09 13:16:08;;;;;;;1.48;0.55;;;14.90;80.50;;;;;;4876321;29;20196;-77
2022/11/09 13:18:52;;;;;;;1.63;0.57;;;15.00;80.60;;;;;;4876230;29;20045;-76
2022/11/09 13:21:37;;;;;;;2.03;0.55;;;15.00;80.40;;;;;;4919065;28;20066;-76
2022/11/09 13:24:42;;;;;;;1.25;0.60;;;15.00;80.40;;;;;;4973584;28;20047;-77
2022/11/09 13:27:36;;;;;;;1.58;0.60;;;15.00;80.30;;;;;;4959169;28;20047;-76
2022/11/09 13:30:44;;;;;;;0.63;0.55;;;15.00;80.20;;;;;;4972917;28;20050;-76
2022/11/09 13:34:06;;;;;;;0.95;0.60;;;15.00;80.00;;;;;;4966760;28;20063;-77
2022/11/09 13:41:19;;;;;;;0.73;0.25;;;14.80;80.10;;;;;;4960252;28;20390;-77
2022/11/09 13:44:06;;;;;;;1.48;0.40;;;14.90;80.20;;;;;;4951081;28;20024;-76
2022/11/09 13:46:38;;;;;;;1.23;0.40;;;14.90;80.00;;;;;;4959859;28;20485;-76
2022/11/09 13:49:46;;;;;;;0.93;0.38;;;14.90;80.00;;;;;;4953143;28;20074;-77
2022/11/09 13:52:48;;;;;;;1.10;0.43;;;14.80;79.90;;;;;;4955420;28;20496;-77
2022/11/09 13:55:24;;;;;;;0.93;0.47;;;14.90;80.00;;;;;;4939104;28;20509;-77